sensor_id;sensor_type;location;lat;lon;timestamp;pressure;altitude;pressure_sealevel;temperature;humidity
50226;BME280;36113;50.742;6.432;2023-03-26T00:01:03;112741.81;;;-145.50;85.26
50226;BME280;36113;50.742;6.432;2023-03-26T00:03:30;112741.81;;;-145.50;85.29
50226;BME280;36113;50.742;6.432;2023-03-26T00:06:09;112741.81;;;-145.50;85.42
50226;BME280;36113;50.742;6.432;2023-03-26T00:08:37;112741.81;;;-145.50;85.50
50226;BME280;36113;50.742;6.432;2023-03-26T00:11:04;112741.81;;;-145.50;85.65
50226;BME280;36113;50.742;6.432;2023-03-26T00:13:30;112741.81;;;-145.50;85.71
50226;BME280;36113;50.742;6.432;2023-03-26T00:15:56;112741.81;;;-145.50;85.76
50226;BME280;36113;50.742;6.432;2023-03-26T00:18:22;112741.81;;;-145.50;85.48
50226;BME280;36113;50.742;6.432;2023-03-26T00:20:54;112741.81;;;-145.50;85.53
50226;BME280;36113;50.742;6.432;2023-03-26T00:23:19;112741.81;;;-145.50;85.34
50226;BME280;36113;50.742;6.432;2023-03-26T00:25:44;112741.81;;;-145.50;85.21
50226;BME280;36113;50.742;6.432;2023-03-26T00:28:15;112741.81;;;-145.50;85.01
50226;BME280;36113;50.742;6.432;2023-03-26T00:30:41;112741.81;;;-145.50;85.05
50226;BME280;36113;50.742;6.432;2023-03-26T00:33:06;112741.81;;;-145.50;85.04
50226;BME280;36113;50.742;6.432;2023-03-26T00:35:35;112741.81;;;-145.50;85.04
50226;BME280;36113;50.742;6.432;2023-03-26T00:38:01;112741.81;;;-145.50;85.40
50226;BME280;36113;50.742;6.432;2023-03-26T00:40:26;112741.81;;;-145.50;85.12
50226;BME280;36113;50.742;6.432;2023-03-26T00:42:51;112741.81;;;-145.50;85.14
50226;BME280;36113;50.742;6.432;2023-03-26T00:45:17;112741.81;;;-145.50;85.28
50226;BME280;36113;50.742;6.432;2023-03-26T00:47:45;112741.81;;;-145.50;85.44
50226;BME280;36113;50.742;6.432;2023-03-26T00:50:11;112741.81;;;-145.50;85.53
50226;BME280;36113;50.742;6.432;2023-03-26T00:52:41;112741.81;;;-145.50;85.29
50226;BME280;36113;50.742;6.432;2023-03-26T00:55:07;112741.81;;;-145.50;84.66
50226;BME280;36113;50.742;6.432;2023-03-26T00:57:33;112741.81;;;-145.50;84.19
50226;BME280;36113;50.742;6.432;2023-03-26T00:59:58;112741.81;;;-145.50;84.02
50226;BME280;36113;50.742;6.432;2023-03-26T01:02:23;112741.81;;;-145.50;83.89
50226;BME280;36113;50.742;6.432;2023-03-26T01:04:55;112741.81;;;-145.50;83.67
50226;BME280;36113;50.742;6.432;2023-03-26T01:07:24;112741.81;;;-145.50;83.26
50226;BME280;36113;50.742;6.432;2023-03-26T01:09:55;112741.81;;;-145.50;82.98
50226;BME280;36113;50.742;6.432;2023-03-26T01:12:25;112741.81;;;-145.50;83.05
50226;BME280;36113;50.742;6.432;2023-03-26T01:14:52;112741.81;;;-145.50;82.71
50226;BME280;36113;50.742;6.432;2023-03-26T01:17:19;112741.81;;;-145.50;82.68
50226;BME280;36113;50.742;6.432;2023-03-26T01:22:33;112741.81;;;-145.50;82.38
50226;BME280;36113;50.742;6.432;2023-03-26T01:25:00;112741.81;;;-145.50;82.54
50226;BME280;36113;50.742;6.432;2023-03-26T01:27:53;112741.81;;;-145.50;82.46
50226;BME280;36113;50.742;6.432;2023-03-26T01:30:29;112741.81;;;-145.50;82.51
50226;BME280;36113;50.742;6.432;2023-03-26T01:36:01;112741.81;;;-145.50;82.45
50226;BME280;36113;50.742;6.432;2023-03-26T01:41:29;112741.81;;;-145.50;82.13
50226;BME280;36113;50.742;6.432;2023-03-26T01:44:01;112741.81;;;-145.50;81.89
50226;BME280;36113;50.742;6.432;2023-03-26T01:46:30;112741.81;;;-145.50;82.02
50226;BME280;36113;50.742;6.432;2023-03-26T01:49:02;112741.81;;;-145.50;82.27
50226;BME280;36113;50.742;6.432;2023-03-26T01:51:30;112741.81;;;-145.50;82.24
50226;BME280;36113;50.742;6.432;2023-03-26T01:53:56;112741.81;;;-145.50;82.37
50226;BME280;36113;50.742;6.432;2023-03-26T01:56:30;112741.81;;;-145.50;82.12
50226;BME280;36113;50.742;6.432;2023-03-26T01:59:03;112741.81;;;-145.50;82.14
50226;BME280;36113;50.742;6.432;2023-03-26T02:02:03;112741.81;;;-145.50;82.23
50226;BME280;36113;50.742;6.432;2023-03-26T02:09:48;112741.81;;;-145.50;83.25
50226;BME280;36113;50.742;6.432;2023-03-26T02:12:15;112741.81;;;-145.50;83.39
50226;BME280;36113;50.742;6.432;2023-03-26T02:14:42;112741.81;;;-145.50;83.62
50226;BME280;36113;50.742;6.432;2023-03-26T02:17:09;112741.81;;;-145.50;84.03
50226;BME280;36113;50.742;6.432;2023-03-26T02:19:35;112741.81;;;-145.50;83.99
50226;BME280;36113;50.742;6.432;2023-03-26T02:22:01;112741.81;;;-145.50;83.99
50226;BME280;36113;50.742;6.432;2023-03-26T02:24:26;112741.81;;;-145.50;84.03
50226;BME280;36113;50.742;6.432;2023-03-26T02:26:52;112741.81;;;-145.50;83.96
50226;BME280;36113;50.742;6.432;2023-03-26T02:29:17;112741.81;;;-145.50;84.06
50226;BME280;36113;50.742;6.432;2023-03-26T02:31:46;112741.81;;;-145.50;84.41
50226;BME280;36113;50.742;6.432;2023-03-26T02:34:15;112741.81;;;-145.50;84.40
50226;BME280;36113;50.742;6.432;2023-03-26T02:36:41;112741.81;;;-145.50;85.05
50226;BME280;36113;50.742;6.432;2023-03-26T02:39:08;112741.81;;;-145.50;85.49
50226;BME280;36113;50.742;6.432;2023-03-26T02:41:35;112741.81;;;-145.50;85.68
50226;BME280;36113;50.742;6.432;2023-03-26T02:44:01;112741.81;;;-145.50;85.47
50226;BME280;36113;50.742;6.432;2023-03-26T02:46:26;112741.81;;;-145.50;85.79
50226;BME280;36113;50.742;6.432;2023-03-26T02:48:51;112741.81;;;-145.50;86.09
50226;BME280;36113;50.742;6.432;2023-03-26T02:51:16;112741.81;;;-145.50;86.05
50226;BME280;36113;50.742;6.432;2023-03-26T02:53:42;112741.81;;;-145.50;86.24
50226;BME280;36113;50.742;6.432;2023-03-26T02:56:08;112741.81;;;-145.50;86.52
50226;BME280;36113;50.742;6.432;2023-03-26T02:58:33;112741.81;;;-145.50;86.62
50226;BME280;36113;50.742;6.432;2023-03-26T03:00:59;112741.81;;;-145.50;86.68
50226;BME280;36113;50.742;6.432;2023-03-26T03:03:27;112741.81;;;-145.50;87.00
50226;BME280;36113;50.742;6.432;2023-03-26T03:05:53;112741.81;;;-145.50;87.30
50226;BME280;36113;50.742;6.432;2023-03-26T03:08:20;112741.81;;;-145.50;87.57
50226;BME280;36113;50.742;6.432;2023-03-26T03:11:10;112741.81;;;-145.50;88.17
50226;BME280;36113;50.742;6.432;2023-03-26T03:13:36;112741.81;;;-145.50;88.49
50226;BME280;36113;50.742;6.432;2023-03-26T03:16:01;112741.81;;;-145.50;88.71
50226;BME280;36113;50.742;6.432;2023-03-26T03:18:26;112741.81;;;-145.50;89.14
50226;BME280;36113;50.742;6.432;2023-03-26T03:20:52;112741.81;;;-145.50;89.29
50226;BME280;36113;50.742;6.432;2023-03-26T03:23:18;112741.81;;;-145.50;89.75
50226;BME280;36113;50.742;6.432;2023-03-26T03:25:43;112741.81;;;-145.50;90.18
50226;BME280;36113;50.742;6.432;2023-03-26T03:28:09;112741.81;;;-145.50;90.33
50226;BME280;36113;50.742;6.432;2023-03-26T03:30:34;112741.81;;;-145.50;90.58
50226;BME280;36113;50.742;6.432;2023-03-26T03:33:00;112741.81;;;-145.50;90.48
50226;BME280;36113;50.742;6.432;2023-03-26T03:35:27;112741.81;;;-145.50;90.33
50226;BME280;36113;50.742;6.432;2023-03-26T03:37:53;112741.81;;;-145.50;90.16
50226;BME280;36113;50.742;6.432;2023-03-26T03:40:18;112741.81;;;-145.50;90.37
50226;BME280;36113;50.742;6.432;2023-03-26T03:42:45;112741.81;;;-145.50;90.78
50226;BME280;36113;50.742;6.432;2023-03-26T03:45:11;112741.81;;;-145.50;90.77
50226;BME280;36113;50.742;6.432;2023-03-26T03:47:37;112741.81;;;-145.50;90.58
50226;BME280;36113;50.742;6.432;2023-03-26T03:50:03;112741.81;;;-145.50;90.58
50226;BME280;36113;50.742;6.432;2023-03-26T03:52:29;112741.81;;;-145.50;90.58
50226;BME280;36113;50.742;6.432;2023-03-26T03:54:55;112741.81;;;-145.50;90.74
50226;BME280;36113;50.742;6.432;2023-03-26T03:57:21;112741.81;;;-145.50;90.93
50226;BME280;36113;50.742;6.432;2023-03-26T03:59:47;112741.81;;;-145.50;91.00
50226;BME280;36113;50.742;6.432;2023-03-26T04:02:13;112741.81;;;-145.50;91.22
50226;BME280;36113;50.742;6.432;2023-03-26T04:04:39;112741.81;;;-145.50;90.95
50226;BME280;36113;50.742;6.432;2023-03-26T04:07:04;112741.81;;;-145.50;90.95
50226;BME280;36113;50.742;6.432;2023-03-26T04:09:30;112741.81;;;-145.50;91.17
50226;BME280;36113;50.742;6.432;2023-03-26T04:11:56;112741.81;;;-145.50;91.45
50226;BME280;36113;50.742;6.432;2023-03-26T04:14:21;112741.81;;;-145.50;91.46
50226;BME280;36113;50.742;6.432;2023-03-26T04:16:46;112741.81;;;-145.50;91.84
50226;BME280;36113;50.742;6.432;2023-03-26T04:19:15;112741.81;;;-145.50;91.84
50226;BME280;36113;50.742;6.432;2023-03-26T04:21:40;112741.81;;;-145.50;92.26
50226;BME280;36113;50.742;6.432;2023-03-26T04:24:07;112741.81;;;-145.50;92.46
50226;BME280;36113;50.742;6.432;2023-03-26T04:26:33;112741.81;;;-145.50;92.38
50226;BME280;36113;50.742;6.432;2023-03-26T04:29:01;112741.81;;;-145.50;92.94
50226;BME280;36113;50.742;6.432;2023-03-26T04:31:28;112741.81;;;-145.50;93.76
50226;BME280;36113;50.742;6.432;2023-03-26T04:33:58;112741.81;;;-145.50;94.63
50226;BME280;36113;50.742;6.432;2023-03-26T04:36:29;112741.81;;;-145.50;95.24
50226;BME280;36113;50.742;6.432;2023-03-26T04:38:56;112741.81;;;-145.50;95.61
50226;BME280;36113;50.742;6.432;2023-03-26T04:41:23;112741.81;;;-145.50;95.92
50226;BME280;36113;50.742;6.432;2023-03-26T04:43:51;112741.81;;;-145.50;95.95
50226;BME280;36113;50.742;6.432;2023-03-26T04:46:20;112741.81;;;-145.50;96.14
50226;BME280;36113;50.742;6.432;2023-03-26T04:48:52;112741.81;;;-145.50;96.46
50226;BME280;36113;50.742;6.432;2023-03-26T04:51:20;112741.81;;;-145.50;96.56
50226;BME280;36113;50.742;6.432;2023-03-26T04:53:53;112741.81;;;-145.50;96.75
50226;BME280;36113;50.742;6.432;2023-03-26T04:56:36;112741.81;;;-145.50;96.51
50226;BME280;36113;50.742;6.432;2023-03-26T04:59:04;112741.81;;;-145.50;96.95
50226;BME280;36113;50.742;6.432;2023-03-26T05:01:30;112741.81;;;-145.50;98.11
50226;BME280;36113;50.742;6.432;2023-03-26T05:03:56;112741.81;;;-145.50;99.12
50226;BME280;36113;50.742;6.432;2023-03-26T05:06:25;112741.81;;;-145.50;99.86
50226;BME280;36113;50.742;6.432;2023-03-26T05:08:53;112741.81;;;-145.50;100.00
50226;BME280;36113;50.742;6.432;2023-03-26T05:11:19;112741.81;;;-145.50;100.00
50226;BME280;36113;50.742;6.432;2023-03-26T05:13:44;112741.81;;;-145.50;100.00
50226;BME280;36113;50.742;6.432;2023-03-26T05:16:11;112741.81;;;-145.50;100.00
50226;BME280;36113;50.742;6.432;2023-03-26T05:18:36;112741.81;;;-145.50;100.00
50226;BME280;36113;50.742;6.432;2023-03-26T05:21:02;112741.81;;;-145.50;100.00
50226;BME280;36113;50.742;6.432;2023-03-26T05:23:27;112741.81;;;-145.50;100.00
50226;BME280;36113;50.742;6.432;2023-03-26T05:25:52;112741.81;;;-145.50;100.00
50226;BME280;36113;50.742;6.432;2023-03-26T05:28:18;112741.81;;;-145.50;100.00
50226;BME280;36113;50.742;6.432;2023-03-26T05:30:45;112741.81;;;-145.50;100.00
50226;BME280;36113;50.742;6.432;2023-03-26T05:33:11;112741.81;;;-145.50;100.00
50226;BME280;36113;50.742;6.432;2023-03-26T05:35:36;112741.81;;;-145.50;100.00
50226;BME280;36113;50.742;6.432;2023-03-26T05:38:02;112741.81;;;-145.50;100.00
50226;BME280;36113;50.742;6.432;2023-03-26T05:40:27;112741.81;;;-145.50;100.00
50226;BME280;36113;50.742;6.432;2023-03-26T05:42:52;112741.81;;;-145.50;100.00
50226;BME280;36113;50.742;6.432;2023-03-26T05:45:18;112741.81;;;-145.50;100.00
50226;BME280;36113;50.742;6.432;2023-03-26T05:47:43;112741.81;;;-145.50;100.00
50226;BME280;36113;50.742;6.432;2023-03-26T05:50:09;112741.81;;;-145.50;100.00
50226;BME280;36113;50.742;6.432;2023-03-26T05:52:35;112741.81;;;-145.50;100.00
50226;BME280;36113;50.742;6.432;2023-03-26T05:55:00;112741.81;;;-145.50;100.00
50226;BME280;36113;50.742;6.432;2023-03-26T05:57:29;112741.81;;;-145.50;100.00
50226;BME280;36113;50.742;6.432;2023-03-26T05:59:54;112741.81;;;-145.50;100.00
50226;BME280;36113;50.742;6.432;2023-03-26T06:02:21;112741.81;;;-145.50;100.00
50226;BME280;36113;50.742;6.432;2023-03-26T06:04:46;112741.81;;;-145.50;100.00
50226;BME280;36113;50.742;6.432;2023-03-26T06:07:12;112741.81;;;-145.50;100.00
50226;BME280;36113;50.742;6.432;2023-03-26T06:09:38;112741.81;;;-145.50;100.00
50226;BME280;36113;50.742;6.432;2023-03-26T06:12:05;112741.81;;;-145.50;100.00
50226;BME280;36113;50.742;6.432;2023-03-26T06:14:31;112741.81;;;-145.50;100.00
50226;BME280;36113;50.742;6.432;2023-03-26T06:16:56;112741.81;;;-145.50;100.00
50226;BME280;36113;50.742;6.432;2023-03-26T06:19:21;112741.81;;;-145.50;100.00
50226;BME280;36113;50.742;6.432;2023-03-26T06:21:47;112741.81;;;-145.50;100.00
50226;BME280;36113;50.742;6.432;2023-03-26T06:24:12;112741.81;;;-145.50;100.00
50226;BME280;36113;50.742;6.432;2023-03-26T06:26:38;112741.81;;;-145.50;100.00
50226;BME280;36113;50.742;6.432;2023-03-26T06:29:04;112741.81;;;-145.50;100.00
50226;BME280;36113;50.742;6.432;2023-03-26T06:31:30;112741.81;;;-145.50;100.00
50226;BME280;36113;50.742;6.432;2023-03-26T06:33:55;112741.81;;;-145.50;100.00
50226;BME280;36113;50.742;6.432;2023-03-26T06:36:20;112741.81;;;-145.50;100.00
50226;BME280;36113;50.742;6.432;2023-03-26T06:38:45;112741.81;;;-145.50;100.00
50226;BME280;36113;50.742;6.432;2023-03-26T06:41:11;112741.81;;;-145.50;100.00
50226;BME280;36113;50.742;6.432;2023-03-26T06:43:36;112741.81;;;-145.50;100.00
50226;BME280;36113;50.742;6.432;2023-03-26T06:46:03;112741.81;;;-145.50;100.00
50226;BME280;36113;50.742;6.432;2023-03-26T06:48:28;112741.81;;;-145.50;100.00
50226;BME280;36113;50.742;6.432;2023-03-26T06:50:55;112741.81;;;-145.50;100.00
50226;BME280;36113;50.742;6.432;2023-03-26T06:53:20;112741.81;;;-145.50;100.00
50226;BME280;36113;50.742;6.432;2023-03-26T06:55:45;112741.81;;;-145.50;100.00
50226;BME280;36113;50.742;6.432;2023-03-26T06:58:11;112741.81;;;-145.50;100.00
50226;BME280;36113;50.742;6.432;2023-03-26T07:00:37;112741.81;;;-145.50;100.00
50226;BME280;36113;50.742;6.432;2023-03-26T07:03:04;112741.81;;;-145.50;100.00
50226;BME280;36113;50.742;6.432;2023-03-26T07:05:29;112741.81;;;-145.50;100.00
50226;BME280;36113;50.742;6.432;2023-03-26T07:07:55;112741.81;;;-145.50;100.00
50226;BME280;36113;50.742;6.432;2023-03-26T07:10:20;112741.81;;;-145.50;100.00
50226;BME280;36113;50.742;6.432;2023-03-26T07:12:46;112741.81;;;-145.50;100.00
50226;BME280;36113;50.742;6.432;2023-03-26T07:15:11;112741.81;;;-145.50;100.00
50226;BME280;36113;50.742;6.432;2023-03-26T07:17:37;112741.81;;;-145.50;100.00
50226;BME280;36113;50.742;6.432;2023-03-26T07:20:04;112741.81;;;-145.50;100.00
50226;BME280;36113;50.742;6.432;2023-03-26T07:22:29;112741.81;;;-145.50;100.00
50226;BME280;36113;50.742;6.432;2023-03-26T07:24:55;112741.81;;;-145.50;100.00
50226;BME280;36113;50.742;6.432;2023-03-26T07:30:14;112741.81;;;-145.50;100.00
50226;BME280;36113;50.742;6.432;2023-03-26T07:32:52;112741.81;;;-145.50;100.00
50226;BME280;36113;50.742;6.432;2023-03-26T07:35:29;112741.81;;;-145.50;100.00
50226;BME280;36113;50.742;6.432;2023-03-26T07:43:12;112741.81;;;-145.50;100.00
50226;BME280;36113;50.742;6.432;2023-03-26T07:45:43;112741.81;;;-145.50;100.00
50226;BME280;36113;50.742;6.432;2023-03-26T07:48:20;112741.81;;;-145.50;100.00
50226;BME280;36113;50.742;6.432;2023-03-26T07:50:46;112741.81;;;-145.50;100.00
50226;BME280;36113;50.742;6.432;2023-03-26T07:53:12;112741.81;;;-145.50;100.00
50226;BME280;36113;50.742;6.432;2023-03-26T07:59:05;112741.81;;;-145.50;100.00
50226;BME280;36113;50.742;6.432;2023-03-26T08:07:21;112741.81;;;-145.50;100.00
50226;BME280;36113;50.742;6.432;2023-03-26T08:12:54;112741.81;;;-145.50;100.00
50226;BME280;36113;50.742;6.432;2023-03-26T08:15:44;112741.81;;;-145.50;100.00
50226;BME280;36113;50.742;6.432;2023-03-26T08:21:22;112741.81;;;-145.50;100.00
50226;BME280;36113;50.742;6.432;2023-03-26T08:24:06;112741.81;;;-145.50;100.00
50226;BME280;36113;50.742;6.432;2023-03-26T08:29:24;112741.81;;;-145.50;100.00
50226;BME280;36113;50.742;6.432;2023-03-26T08:31:53;112741.81;;;-145.50;100.00
50226;BME280;36113;50.742;6.432;2023-03-26T08:34:22;112741.81;;;-145.50;100.00
50226;BME280;36113;50.742;6.432;2023-03-26T08:36:47;112741.81;;;-145.50;100.00
50226;BME280;36113;50.742;6.432;2023-03-26T08:39:12;112741.81;;;-145.50;100.00
50226;BME280;36113;50.742;6.432;2023-03-26T08:45:15;112741.81;;;-145.50;100.00
50226;BME280;36113;50.742;6.432;2023-03-26T08:59:50;112741.81;;;-145.50;100.00
50226;BME280;36113;50.742;6.432;2023-03-26T09:08:21;112741.81;;;-145.50;100.00
50226;BME280;36113;50.742;6.432;2023-03-26T09:11:36;112741.81;;;-145.50;100.00
50226;BME280;36113;50.742;6.432;2023-03-26T09:14:28;112741.81;;;-145.50;100.00
50226;BME280;36113;50.742;6.432;2023-03-26T09:33:31;112741.81;;;-145.50;100.00
50226;BME280;36113;50.742;6.432;2023-03-26T09:38:51;112741.81;;;-145.50;99.74
50226;BME280;36113;50.742;6.432;2023-03-26T09:41:31;112741.81;;;-145.50;99.33
50226;BME280;36113;50.742;6.432;2023-03-26T10:01:07;112741.81;;;-145.50;100.00
50226;BME280;36113;50.742;6.432;2023-03-26T10:03:50;112741.81;;;-145.50;100.00
50226;BME280;36113;50.742;6.432;2023-03-26T10:06:43;112741.81;;;-145.50;99.34
50226;BME280;36113;50.742;6.432;2023-03-26T10:10:01;112741.81;;;-145.50;99.88
50226;BME280;36113;50.742;6.432;2023-03-26T10:12:35;112741.81;;;-145.50;100.00
50226;BME280;36113;50.742;6.432;2023-03-26T10:15:34;112741.81;;;-145.50;100.00
50226;BME280;36113;50.742;6.432;2023-03-26T10:18:18;112741.81;;;-145.50;100.00
50226;BME280;36113;50.742;6.432;2023-03-26T10:29:24;112741.81;;;-145.50;100.00
50226;BME280;36113;50.742;6.432;2023-03-26T10:32:20;112741.81;;;-145.50;100.00
50226;BME280;36113;50.742;6.432;2023-03-26T10:34:48;112741.81;;;-145.50;100.00
50226;BME280;36113;50.742;6.432;2023-03-26T10:37:35;112741.81;;;-145.50;100.00
50226;BME280;36113;50.742;6.432;2023-03-26T10:51:49;112741.81;;;-145.50;100.00
50226;BME280;36113;50.742;6.432;2023-03-26T10:56:59;112741.81;;;-145.50;100.00
50226;BME280;36113;50.742;6.432;2023-03-26T10:59:27;112741.81;;;-145.50;100.00
50226;BME280;36113;50.742;6.432;2023-03-26T11:02:30;112741.81;;;-145.50;100.00
50226;BME280;36113;50.742;6.432;2023-03-26T11:08:10;112741.81;;;-145.50;99.41
50226;BME280;36113;50.742;6.432;2023-03-26T11:13:37;112741.81;;;-145.50;98.42
50226;BME280;36113;50.742;6.432;2023-03-26T11:16:34;112741.81;;;-145.50;97.86
50226;BME280;36113;50.742;6.432;2023-03-26T11:22:12;112741.81;;;-145.50;94.51
50226;BME280;36113;50.742;6.432;2023-03-26T11:24:57;112741.81;;;-145.50;93.50
50226;BME280;36113;50.742;6.432;2023-03-26T11:30:16;112741.81;;;-145.50;92.83
50226;BME280;36113;50.742;6.432;2023-03-26T11:32:48;112741.81;;;-145.50;92.75
50226;BME280;36113;50.742;6.432;2023-03-26T11:35:20;112741.81;;;-145.50;93.67
50226;BME280;36113;50.742;6.432;2023-03-26T11:37:53;112741.81;;;-145.50;93.33
50226;BME280;36113;50.742;6.432;2023-03-26T11:40:24;112741.81;;;-145.50;94.20
50226;BME280;36113;50.742;6.432;2023-03-26T11:42:55;112741.81;;;-145.50;95.11
50226;BME280;36113;50.742;6.432;2023-03-26T11:45:25;112741.81;;;-145.50;96.34
50226;BME280;36113;50.742;6.432;2023-03-26T11:50:31;112741.81;;;-145.50;97.03
50226;BME280;36113;50.742;6.432;2023-03-26T11:53:12;112741.81;;;-145.50;97.85
50226;BME280;36113;50.742;6.432;2023-03-26T11:55:46;112741.81;;;-145.50;97.88
50226;BME280;36113;50.742;6.432;2023-03-26T11:58:42;112741.81;;;-145.50;98.06
50226;BME280;36113;50.742;6.432;2023-03-26T12:01:13;112741.81;;;-145.50;97.00
50226;BME280;36113;50.742;6.432;2023-03-26T12:03:40;112741.81;;;-145.50;97.92
50226;BME280;36113;50.742;6.432;2023-03-26T12:06:21;112741.81;;;-145.50;98.14
50226;BME280;36113;50.742;6.432;2023-03-26T12:08:49;112741.81;;;-145.50;98.59
50226;BME280;36113;50.742;6.432;2023-03-26T12:11:17;112741.81;;;-145.50;98.21
50226;BME280;36113;50.742;6.432;2023-03-26T12:13:54;112741.81;;;-145.50;97.96
50226;BME280;36113;50.742;6.432;2023-03-26T12:16:22;112741.81;;;-145.50;98.45
50226;BME280;36113;50.742;6.432;2023-03-26T12:19:05;112741.81;;;-145.50;97.91
50226;BME280;36113;50.742;6.432;2023-03-26T12:21:47;112741.81;;;-145.50;98.61
50226;BME280;36113;50.742;6.432;2023-03-26T12:24:31;112741.81;;;-145.50;99.53
50226;BME280;36113;50.742;6.432;2023-03-26T12:26:59;112741.81;;;-145.50;98.50
50226;BME280;36113;50.742;6.432;2023-03-26T12:29:28;112741.81;;;-145.50;98.38
50226;BME280;36113;50.742;6.432;2023-03-26T12:32:06;112741.81;;;-145.50;98.55
50226;BME280;36113;50.742;6.432;2023-03-26T12:34:38;112741.81;;;-145.50;97.91
50226;BME280;36113;50.742;6.432;2023-03-26T12:37:06;112741.81;;;-145.50;97.28
50226;BME280;36113;50.742;6.432;2023-03-26T12:41:59;112741.81;;;-145.50;97.15
50226;BME280;36113;50.742;6.432;2023-03-26T12:44:37;112741.81;;;-145.50;96.39
50226;BME280;36113;50.742;6.432;2023-03-26T12:50:11;112741.81;;;-145.50;96.38
50226;BME280;36113;50.742;6.432;2023-03-26T12:52:59;112741.81;;;-145.50;94.70
50226;BME280;36113;50.742;6.432;2023-03-26T13:04:38;112741.81;;;-145.50;95.52
50226;BME280;36113;50.742;6.432;2023-03-26T13:07:20;112741.81;;;-145.50;95.82
50226;BME280;36113;50.742;6.432;2023-03-26T13:10:02;112741.81;;;-145.50;95.94
50226;BME280;36113;50.742;6.432;2023-03-26T13:12:47;112741.81;;;-145.50;95.66
50226;BME280;36113;50.742;6.432;2023-03-26T13:20:23;112741.81;;;-145.50;95.30
50226;BME280;36113;50.742;6.432;2023-03-26T13:23:00;112741.81;;;-145.50;95.40
50226;BME280;36113;50.742;6.432;2023-03-26T13:25:49;112741.81;;;-145.50;96.39
50226;BME280;36113;50.742;6.432;2023-03-26T13:28:30;112741.81;;;-145.50;96.87
50226;BME280;36113;50.742;6.432;2023-03-26T13:31:06;112741.81;;;-145.50;97.22
50226;BME280;36113;50.742;6.432;2023-03-26T13:36:32;112741.81;;;-145.50;98.33
50226;BME280;36113;50.742;6.432;2023-03-26T13:39:26;112741.81;;;-145.50;97.48
50226;BME280;36113;50.742;6.432;2023-03-26T13:47:16;112741.81;;;-145.50;97.60
50226;BME280;36113;50.742;6.432;2023-03-26T13:49:48;112741.81;;;-145.50;97.05
50226;BME280;36113;50.742;6.432;2023-03-26T13:52:43;112741.81;;;-145.50;97.67
50226;BME280;36113;50.742;6.432;2023-03-26T13:58:00;112741.81;;;-145.50;97.33
50226;BME280;36113;50.742;6.432;2023-03-26T14:03:14;112741.81;;;-145.50;97.64
50226;BME280;36113;50.742;6.432;2023-03-26T14:05:45;112741.81;;;-145.50;97.10
50226;BME280;36113;50.742;6.432;2023-03-26T14:08:29;112741.81;;;-145.50;97.17
50226;BME280;36113;50.742;6.432;2023-03-26T14:11:46;112741.81;;;-145.50;96.95
50226;BME280;36113;50.742;6.432;2023-03-26T14:17:19;112741.81;;;-145.50;97.62
50226;BME280;36113;50.742;6.432;2023-03-26T14:25:26;112741.81;;;-145.50;97.35
50226;BME280;36113;50.742;6.432;2023-03-26T14:28:09;112741.81;;;-145.50;96.97
50226;BME280;36113;50.742;6.432;2023-03-26T14:30:48;112741.81;;;-145.50;97.39
50226;BME280;36113;50.742;6.432;2023-03-26T14:36:21;112741.81;;;-145.50;99.22
50226;BME280;36113;50.742;6.432;2023-03-26T14:41:45;112741.81;;;-145.50;100.00
50226;BME280;36113;50.742;6.432;2023-03-26T14:49:50;112741.81;;;-145.50;100.00
50226;BME280;36113;50.742;6.432;2023-03-26T14:52:45;112741.81;;;-145.50;100.00
50226;BME280;36113;50.742;6.432;2023-03-26T14:55:17;112741.81;;;-145.50;100.00
50226;BME280;36113;50.742;6.432;2023-03-26T15:11:59;112741.81;;;-145.50;100.00
50226;BME280;36113;50.742;6.432;2023-03-26T15:28:45;112741.81;;;-145.50;100.00
50226;BME280;36113;50.742;6.432;2023-03-26T15:31:40;112741.81;;;-145.50;100.00
50226;BME280;36113;50.742;6.432;2023-03-26T15:42:47;112741.81;;;-145.50;100.00
50226;BME280;36113;50.742;6.432;2023-03-26T15:50:57;112741.81;;;-145.50;100.00
50226;BME280;36113;50.742;6.432;2023-03-26T15:53:41;112741.81;;;-145.50;100.00
50226;BME280;36113;50.742;6.432;2023-03-26T15:56:29;112741.81;;;-145.50;100.00
50226;BME280;36113;50.742;6.432;2023-03-26T16:12:57;112741.81;;;-145.50;100.00
50226;BME280;36113;50.742;6.432;2023-03-26T16:15:37;112741.81;;;-145.50;100.00
50226;BME280;36113;50.742;6.432;2023-03-26T16:28:34;112741.81;;;-145.50;100.00
50226;BME280;36113;50.742;6.432;2023-03-26T16:33:50;112741.81;;;-145.50;100.00
50226;BME280;36113;50.742;6.432;2023-03-26T16:36:25;112741.81;;;-145.50;100.00
50226;BME280;36113;50.742;6.432;2023-03-26T16:41:27;112741.81;;;-145.50;100.00
50226;BME280;36113;50.742;6.432;2023-03-26T16:47:07;112741.81;;;-145.50;100.00
50226;BME280;36113;50.742;6.432;2023-03-26T16:49:43;112741.81;;;-145.50;100.00
50226;BME280;36113;50.742;6.432;2023-03-26T16:55:22;112741.81;;;-145.50;100.00
50226;BME280;36113;50.742;6.432;2023-03-26T17:03:42;112741.81;;;-145.50;100.00
50226;BME280;36113;50.742;6.432;2023-03-26T17:06:54;112741.81;;;-145.50;100.00
50226;BME280;36113;50.742;6.432;2023-03-26T17:09:43;112741.81;;;-145.50;100.00
50226;BME280;36113;50.742;6.432;2023-03-26T17:12:54;112741.81;;;-145.50;100.00
50226;BME280;36113;50.742;6.432;2023-03-26T17:18:24;112741.81;;;-145.50;100.00
50226;BME280;36113;50.742;6.432;2023-03-26T17:20:59;112741.81;;;-145.50;100.00
50226;BME280;36113;50.742;6.432;2023-03-26T17:28:49;112741.81;;;-145.50;100.00